Aérodrome :
LOGIN :

S'inscrire | Disclaimer

   EN    FR    IT 

 










Légende :    VFR   VFR Marginal   IFR   IFR Intensif   IFR Très Intensif
Visi : 
Plafond : 
>= 8 km
>= 3000ft
5 à 8 km
1000 à 3000 ft
1500m à 5 km
500 à 1000 ft
800 à 1500m
200 à 500 ft
< 800m
< 200 ft
Symboles :   Orages  Brouillard  Fortes neiges  Fortes précipitations  Vent > 20 kt
SIGMETs :   Divers  Orages  Givrage  Turbulence  Onde Orograph.  Cendres Volcan.







- Altitude de l'aérodrome : 584 ft
- Voir les cartes d'approche


LFPV - Villacoublay Vélizy

DERNIER METAR :
  • 121800Z AUTO 22004KT CAVOK 03/01 Q1014 NOSIG

METARs EXPIRÉS :
  • 121730Z AUTO 22004KT CAVOK 03/01 Q1014 NOSIG
  • 121700Z AUTO 21004KT 9999 FEW016 03/01 Q1014 NOSIG
  • 121630Z AUTO 19003KT 9999 SCT021 03/01 Q1013 NOSIG
  • 121600Z AUTO 21005KT 180V250 9999 BKN020 BKN029 BKN038 04/01 Q1014 NOSIG
  • 121530Z AUTO 21004KT 170V240 9999 FEW018 BKN039 04/01 Q1013 NOSIG

TAF TAF LFPV
Valide du 12 à 15h jusqu'au 13 à 15h UTC


121400Z 1215/1315 22006KT 9999 FEW020
BECMG 1222/1224 BKN008
TEMPO 1300/1306 BKN004
PROB40
TEMPO 1306/1308 4000 RA BKN003
TEMPO 1310/1315 22015G25KT BKN015
Pas de NOTAMs connus pour ce terrain.



MET'MAP, la Météo Aéronautique d'un coup d'oeil ! - Copyright ORBIFLY Décembre 2007 - Disclaimer

ORBIFLY MET'MAP TEAM :

Programmation & Développement : Alexandra Zaïnal
Conception & Développement : Baudouin d'Aumeries
Co-Programmation & Développement : Marc-Olivier Méhu
Soutien technique & logistique : Manuel Goepfert

Contact : metmap@orbifly.com




SOURCES & CREDITS :

   NOAA